createdAt,value
2018-04-19T00:01:25.806Z,10.20
2018-04-19T00:03:53.321Z,10.63
2018-04-19T00:06:20.867Z,10.87
2018-04-19T00:08:48.406Z,9.40
2018-04-19T00:11:15.882Z,10.27
2018-04-19T00:13:43.395Z,10.50
2018-04-19T00:16:11.774Z,10.40
2018-04-19T00:18:39.219Z,9.63
2018-04-19T00:21:06.707Z,9.50
2018-04-19T00:23:34.174Z,9.27
2018-04-19T00:26:03.102Z,9.23
2018-04-19T00:28:30.702Z,10.30
2018-04-19T00:30:58.227Z,10.80
2018-04-19T00:33:25.771Z,10.20
2018-04-19T00:35:53.256Z,9.83
2018-04-19T00:38:20.819Z,9.77
2018-04-19T00:40:48.368Z,10.80
2018-04-19T00:43:15.834Z,9.10
2018-04-19T00:45:43.314Z,10.40
2018-04-19T00:48:10.783Z,9.70
2018-04-19T00:50:38.301Z,9.87
2018-04-19T00:53:09.556Z,10.80
2018-04-19T00:55:37.064Z,9.40
2018-04-19T00:58:04.561Z,9.53
2018-04-19T01:00:32.043Z,9.40
2018-04-19T01:02:59.527Z,10.70
2018-04-19T01:05:27.048Z,9.97
2018-04-19T01:07:54.524Z,9.37
2018-04-19T01:10:22.032Z,9.90
2018-04-19T01:12:49.542Z,9.23
2018-04-19T01:15:17.015Z,8.27
2018-04-19T01:17:45.249Z,9.03
2018-04-19T01:20:12.761Z,9.30
2018-04-19T01:22:40.230Z,8.93
2018-04-19T01:25:07.742Z,8.93
2018-04-19T01:27:35.230Z,8.40
2018-04-19T01:30:02.757Z,9.60
2018-04-19T01:32:30.253Z,9.53
2018-04-19T01:47:54.888Z,9.13
2018-04-19T01:50:22.425Z,8.90
2018-04-19T01:52:49.918Z,8.57
2018-04-19T01:55:17.419Z,8.90
2018-04-19T01:57:44.964Z,9.17
2018-04-19T02:00:16.630Z,9.03
2018-04-19T02:02:44.109Z,9.10
2018-04-19T02:05:11.572Z,9.87
2018-04-19T02:07:39.026Z,9.97
2018-04-19T02:10:06.553Z,9.90
2018-04-19T02:12:34.042Z,10.07
2018-04-19T02:15:01.503Z,9.43
2018-04-19T02:17:29.015Z,9.30
2018-04-19T02:19:56.483Z,9.77
2018-04-19T02:22:23.953Z,9.60
2018-04-19T02:24:51.510Z,9.10
2018-04-19T02:27:18.998Z,9.70
2018-04-19T02:29:46.495Z,9.40
2018-04-19T02:32:13.992Z,9.40
2018-04-19T02:34:41.493Z,10.20
2018-04-19T02:37:09.008Z,11.60
2018-04-19T02:39:36.486Z,10.93
2018-04-19T02:42:03.991Z,10.47
2018-04-19T02:44:31.545Z,11.30
2018-04-19T02:46:59.022Z,10.50
2018-04-19T02:49:27.175Z,9.43
2018-04-19T02:51:54.661Z,11.27
2018-04-19T02:54:22.145Z,11.50
2018-04-19T02:56:49.672Z,11.70
2018-04-19T02:59:17.139Z,11.13
2018-04-19T03:01:44.640Z,10.27
2018-04-19T03:04:12.110Z,10.90
2018-04-19T03:06:39.612Z,11.73
2018-04-19T03:09:07.091Z,11.10
2018-04-19T03:11:34.582Z,11.60
2018-04-19T03:14:02.055Z,10.27
2018-04-19T03:16:29.563Z,10.43
2018-04-19T03:18:57.049Z,10.97
2018-04-19T03:21:24.530Z,10.03
2018-04-19T03:23:52.066Z,11.80
2018-04-19T03:26:19.601Z,11.90
2018-04-19T03:28:47.075Z,10.50
2018-04-19T03:31:14.566Z,9.60
2018-04-19T03:33:42.047Z,10.10
2018-04-19T03:36:09.527Z,10.37
2018-04-19T03:38:37.048Z,10.10
2018-04-19T03:41:04.541Z,10.70
2018-04-19T03:43:32.054Z,10.77
2018-04-19T03:45:59.523Z,11.63
2018-04-19T03:48:27.007Z,11.10
2018-04-19T03:50:54.512Z,11.03
2018-04-19T03:53:22.024Z,11.67
2018-04-19T03:55:49.501Z,10.67
2018-04-19T03:58:16.986Z,10.80
2018-04-19T04:00:44.476Z,10.17
2018-04-19T04:03:11.988Z,10.93
2018-04-19T04:05:39.457Z,10.47
2018-04-19T04:08:06.950Z,10.50
2018-04-19T04:10:34.467Z,11.13
2018-04-19T04:13:01.949Z,10.87
2018-04-19T04:15:29.422Z,10.27
2018-04-19T04:18:08.716Z,11.40
2018-04-19T04:20:47.986Z,10.33
2018-04-19T04:23:28.827Z,10.50
2018-04-19T04:25:56.916Z,11.00
2018-04-19T04:28:24.406Z,11.23
2018-04-19T04:30:52.760Z,11.73
2018-04-19T04:33:20.323Z,11.87
2018-04-19T04:35:47.793Z,11.47
2018-04-19T04:38:15.318Z,11.20
2018-04-19T04:40:42.827Z,9.93
2018-04-19T04:43:10.293Z,10.63
2018-04-19T04:45:37.839Z,11.17
2018-04-19T04:48:05.388Z,11.90
2018-04-19T04:50:33.503Z,11.53
2018-04-19T04:53:01.017Z,11.20
2018-04-19T04:55:28.488Z,12.93
2018-04-19T04:57:55.953Z,12.67
2018-04-19T05:00:23.436Z,11.30
2018-04-19T05:02:50.936Z,12.10
2018-04-19T05:05:18.403Z,12.37
2018-04-19T05:07:45.915Z,11.63
2018-04-19T05:10:13.414Z,11.83
2018-04-19T05:12:40.880Z,13.30
2018-04-19T05:15:08.374Z,12.50
2018-04-19T05:17:35.857Z,12.77
2018-04-19T05:20:03.376Z,12.70
2018-04-19T05:22:30.941Z,12.07
2018-04-19T05:24:58.443Z,12.53
2018-04-19T05:27:25.916Z,12.17
2018-04-19T05:29:53.497Z,12.83
2018-04-19T05:32:20.966Z,13.80
2018-04-19T05:34:48.426Z,12.70
2018-04-19T05:37:15.969Z,13.00
2018-04-19T05:39:43.430Z,14.40
2018-04-19T05:42:10.941Z,15.67
2018-04-19T05:44:38.412Z,15.90
2018-04-19T05:47:06.074Z,16.67
2018-04-19T05:49:33.532Z,17.77
2018-04-19T05:52:01.017Z,16.97
2018-04-19T05:54:28.479Z,16.97
2018-04-19T05:56:55.957Z,15.17
2018-04-19T05:59:23.417Z,17.07
2018-04-19T06:01:50.890Z,16.73
2018-04-19T06:04:18.372Z,17.67
2018-04-19T06:06:45.839Z,17.00
2018-04-19T06:09:13.326Z,16.10
2018-04-19T06:11:40.813Z,16.53
2018-04-19T06:14:08.417Z,16.27
2018-04-19T06:16:35.999Z,16.17
2018-04-19T06:19:03.578Z,16.33
2018-04-19T06:21:31.078Z,17.17
2018-04-19T06:23:58.540Z,16.63
2018-04-19T06:26:26.034Z,16.83
2018-04-19T06:28:53.527Z,16.13
2018-04-19T06:31:20.993Z,15.87
2018-04-19T06:33:48.502Z,18.07
2018-04-19T06:36:15.953Z,15.87
2018-04-19T06:38:43.452Z,15.33
2018-04-19T06:41:10.918Z,16.80
2018-04-19T06:43:38.377Z,14.40
2018-04-19T06:46:05.897Z,15.77
2018-04-19T06:48:33.392Z,13.97
2018-04-19T06:51:00.861Z,14.27
2018-04-19T06:53:28.342Z,14.83
2018-04-19T06:55:55.839Z,13.40
2018-04-19T06:58:23.375Z,13.90
2018-04-19T07:00:50.856Z,13.70
2018-04-19T07:03:18.380Z,14.37
2018-04-19T07:05:45.871Z,14.17
2018-04-19T07:08:13.340Z,13.60
2018-04-19T07:10:40.821Z,13.80
2018-04-19T07:13:08.302Z,14.03
2018-04-19T07:15:35.762Z,14.30
2018-04-19T07:18:03.260Z,13.40
2018-04-19T07:20:30.746Z,13.17
2018-04-19T07:22:58.339Z,13.77
2018-04-19T07:25:25.842Z,14.40
2018-04-19T07:27:53.317Z,14.60
2018-04-19T07:30:20.796Z,14.60
2018-04-19T07:32:48.281Z,14.73
2018-04-19T07:35:15.735Z,14.87
2018-04-19T07:37:43.202Z,13.70
2018-04-19T07:40:10.692Z,12.60
2018-04-19T07:42:38.200Z,12.70
2018-04-19T07:45:05.679Z,13.10
2018-04-19T07:47:33.248Z,14.00
2018-04-19T07:50:00.823Z,13.93
2018-04-19T07:52:28.294Z,14.70
2018-04-19T07:54:55.769Z,14.00
2018-04-19T07:57:23.252Z,13.70
2018-04-19T07:59:50.731Z,12.70
2018-04-19T08:02:18.218Z,13.77
2018-04-19T08:04:45.708Z,13.40
2018-04-19T08:07:13.211Z,14.30
2018-04-19T08:09:40.681Z,14.07
2018-04-19T08:12:08.175Z,13.47
2018-04-19T08:14:37.272Z,13.30
2018-04-19T08:17:04.745Z,13.17
2018-04-19T08:19:32.239Z,12.10
2018-04-19T08:21:59.693Z,13.00
2018-04-19T08:24:27.168Z,13.40
2018-04-19T08:26:54.699Z,12.43
2018-04-19T08:29:22.169Z,12.33
2018-04-19T08:31:49.659Z,13.20
2018-04-19T08:34:17.117Z,13.70
2018-04-19T08:36:44.586Z,13.33
2018-04-19T08:39:12.057Z,14.33
2018-04-19T08:41:39.525Z,14.33
2018-04-19T08:44:07.016Z,14.40
2018-04-19T08:46:34.543Z,14.87
2018-04-19T08:49:02.022Z,13.40
2018-04-19T08:51:29.494Z,14.00
2018-04-19T08:53:57.001Z,13.27
2018-04-19T08:56:24.519Z,13.27
2018-04-19T08:58:51.965Z,12.47
2018-04-19T09:01:19.460Z,13.67
2018-04-19T09:03:46.967Z,12.30
2018-04-19T09:06:14.436Z,12.57
2018-04-19T09:08:41.919Z,13.30
2018-04-19T09:11:09.383Z,13.03
2018-04-19T09:13:36.903Z,12.80
2018-04-19T09:16:04.395Z,12.60
2018-04-19T09:18:31.858Z,13.57
2018-04-19T09:20:59.358Z,12.80
2018-04-19T09:23:26.821Z,12.70
2018-04-19T09:25:54.314Z,12.37
2018-04-19T09:28:21.816Z,13.30
2018-04-19T09:30:49.279Z,15.30
2018-04-19T09:33:16.740Z,12.83
2018-04-19T09:35:44.247Z,14.97
2018-04-19T09:38:11.754Z,14.67
2018-04-19T09:40:39.215Z,13.33
2018-04-19T09:43:06.695Z,13.47
2018-04-19T09:45:34.206Z,12.20
2018-04-19T09:48:01.668Z,13.17
2018-04-19T09:50:29.163Z,14.50
2018-04-19T09:52:56.659Z,14.00
2018-04-19T09:55:24.139Z,15.40
2018-04-19T09:58:03.855Z,15.23
2018-04-19T10:00:32.289Z,16.63
2018-04-19T10:02:59.769Z,15.97
2018-04-19T10:05:27.314Z,15.77
2018-04-19T10:07:54.879Z,17.37
2018-04-19T10:10:22.424Z,17.73
2018-04-19T10:12:49.895Z,16.80
2018-04-19T10:15:17.362Z,15.70
2018-04-19T10:17:44.838Z,16.87
2018-04-19T10:20:12.326Z,17.07
2018-04-19T10:22:39.815Z,16.17
2018-04-19T10:25:07.288Z,15.70
2018-04-19T10:27:34.835Z,15.07
2018-04-19T10:30:02.265Z,16.27
2018-04-19T10:32:29.758Z,15.57
2018-04-19T10:34:57.249Z,16.10
2018-04-19T10:37:24.749Z,14.23
2018-04-19T10:39:52.410Z,13.27
2018-04-19T10:42:19.875Z,14.00
2018-04-19T10:44:47.354Z,14.20
2018-04-19T10:47:14.830Z,15.70
2018-04-19T10:49:42.317Z,13.13
2018-04-19T10:52:09.849Z,13.63
2018-04-19T10:54:37.326Z,13.90
2018-04-19T10:57:04.843Z,15.17
2018-04-19T10:59:32.333Z,13.07
2018-04-19T11:01:59.803Z,12.60
2018-04-19T11:04:27.316Z,12.53
2018-04-19T11:06:54.805Z,13.67
2018-04-19T11:09:22.266Z,12.20
2018-04-19T11:11:49.756Z,12.03
2018-04-19T11:14:17.220Z,11.70
2018-04-19T11:16:44.715Z,10.30
2018-04-19T11:19:12.177Z,9.77
2018-04-19T11:21:39.630Z,8.90
2018-04-19T11:24:07.150Z,8.80
2018-04-19T11:26:34.914Z,9.50
2018-04-19T11:29:02.395Z,7.80
2018-04-19T11:31:29.882Z,7.87
2018-04-19T11:33:57.342Z,8.30
2018-04-19T11:36:24.838Z,7.40
2018-04-19T11:38:52.306Z,6.93
2018-04-19T11:41:19.769Z,6.60
2018-04-19T11:43:47.255Z,8.37
2018-04-19T11:46:14.707Z,7.40
2018-04-19T11:48:42.178Z,6.80
2018-04-19T11:51:09.638Z,7.30
2018-04-19T11:53:37.110Z,7.37
2018-04-19T11:56:04.618Z,7.53
2018-04-19T11:58:32.079Z,6.73
2018-04-19T12:00:59.566Z,6.23
2018-04-19T12:03:27.034Z,6.47
2018-04-19T12:05:54.502Z,7.67
2018-04-19T12:08:21.987Z,6.60
2018-04-19T12:10:49.470Z,7.20
2018-04-19T12:13:17.021Z,6.80
2018-04-19T12:15:44.512Z,6.67
2018-04-19T12:18:11.996Z,6.23
2018-04-19T12:20:39.476Z,5.80
2018-04-19T12:23:06.982Z,5.40
2018-04-19T12:25:34.592Z,6.10
2018-04-19T12:28:02.080Z,5.00
2018-04-19T12:30:29.542Z,4.90
2018-04-19T12:32:57.054Z,5.93
2018-04-19T12:35:24.526Z,5.50
2018-04-19T12:37:52.007Z,5.20
2018-04-19T12:40:19.507Z,6.80
2018-04-19T12:42:46.974Z,5.67
2018-04-19T12:45:14.446Z,5.00
2018-04-19T12:47:41.960Z,5.00
2018-04-19T12:50:09.427Z,4.90
2018-04-19T12:52:36.909Z,4.83
2018-04-19T12:55:04.413Z,4.43
2018-04-19T13:10:27.119Z,4.30
2018-04-19T13:12:54.610Z,4.70
2018-04-19T13:15:22.067Z,4.50
2018-04-19T13:17:50.175Z,4.63
2018-04-19T13:20:17.654Z,5.20
2018-04-19T13:22:45.116Z,5.07
2018-04-19T13:25:12.633Z,4.80
2018-04-19T13:27:40.095Z,4.43
2018-04-19T13:30:07.577Z,5.03
2018-04-19T13:32:35.788Z,4.90
2018-04-19T13:35:03.270Z,5.10
2018-04-19T13:37:30.760Z,5.60
2018-04-19T13:39:58.214Z,4.97
2018-04-19T13:42:25.685Z,5.47
2018-04-19T13:44:53.146Z,4.13
2018-04-19T13:47:20.677Z,4.70
2018-04-19T13:49:48.163Z,5.30
2018-04-19T13:52:15.620Z,4.90
2018-04-19T13:54:43.078Z,5.10
2018-04-19T13:57:10.559Z,4.93
2018-04-19T13:59:38.017Z,5.43
2018-04-19T14:02:05.506Z,4.60
2018-04-19T14:04:33.059Z,4.17
2018-04-19T14:07:00.544Z,4.80
2018-04-19T14:09:28.107Z,5.10
2018-04-19T14:11:55.604Z,3.93
2018-04-19T14:14:23.074Z,3.40
2018-04-19T14:16:50.583Z,3.73
2018-04-19T14:19:18.103Z,3.60
2018-04-19T14:21:45.559Z,3.87
2018-04-19T14:24:13.036Z,3.60
2018-04-19T14:26:40.535Z,3.60
2018-04-19T14:29:08.023Z,3.50
2018-04-19T14:31:35.590Z,3.47
2018-04-19T14:34:03.107Z,3.40
2018-04-19T14:36:30.589Z,4.20
2018-04-19T14:38:58.039Z,3.90
2018-04-19T14:41:25.543Z,3.47
2018-04-19T14:43:53.000Z,3.77
2018-04-19T14:46:20.490Z,3.50
2018-04-19T14:48:47.969Z,3.17
2018-04-19T14:51:15.443Z,3.20
2018-04-19T14:53:43.865Z,3.17
2018-04-19T14:56:11.372Z,4.00
2018-04-19T14:58:38.833Z,3.20
2018-04-19T15:01:06.313Z,3.10
2018-04-19T15:03:33.785Z,3.03
2018-04-19T15:06:01.257Z,3.00
2018-04-19T15:08:28.752Z,2.70
2018-04-19T15:10:56.232Z,2.83
2018-04-19T15:13:23.719Z,2.87
2018-04-19T15:15:51.225Z,2.60
2018-04-19T15:18:18.774Z,2.60
2018-04-19T15:20:46.266Z,2.73
2018-04-19T15:23:13.811Z,2.67
2018-04-19T15:25:41.263Z,3.40
2018-04-19T15:28:08.739Z,3.03
2018-04-19T15:30:36.257Z,2.57
2018-04-19T15:33:03.719Z,2.53
2018-04-19T15:35:33.106Z,2.67
2018-04-19T15:38:00.604Z,3.17
2018-04-19T15:40:29.250Z,2.67
2018-04-19T15:42:56.875Z,3.23
2018-04-19T15:45:24.536Z,2.97
2018-04-19T15:47:52.098Z,2.80
2018-04-19T15:50:20.483Z,2.90
2018-04-19T15:52:48.041Z,3.30
2018-04-19T15:55:15.643Z,3.60
2018-04-19T15:57:43.239Z,2.90
2018-04-19T16:00:12.871Z,2.27
2018-04-19T16:02:40.490Z,2.63
2018-04-19T16:05:08.744Z,2.93
2018-04-19T16:07:36.352Z,3.10
2018-04-19T16:10:04.216Z,2.77
2018-04-19T16:22:13.522Z,2.97
2018-04-19T16:24:41.057Z,4.03
2018-04-19T16:27:08.527Z,2.60
2018-04-19T16:29:36.010Z,2.60
2018-04-19T16:32:03.484Z,3.50
2018-04-19T16:34:30.952Z,3.40
2018-04-19T16:36:58.451Z,3.47
2018-04-19T16:39:25.915Z,2.70
2018-04-19T16:41:53.430Z,3.07
2018-04-19T16:44:21.315Z,3.20
2018-04-19T16:46:48.809Z,3.03
2018-04-19T16:49:16.291Z,2.70
2018-04-19T16:51:43.765Z,2.80
2018-04-19T16:54:11.244Z,3.60
2018-04-19T16:56:38.760Z,3.30
2018-04-19T16:59:06.279Z,3.17
2018-04-19T17:01:33.781Z,3.80
2018-04-19T17:04:01.290Z,4.00
2018-04-19T17:06:28.826Z,3.60
2018-04-19T17:08:56.304Z,4.10
2018-04-19T17:11:23.791Z,3.90
2018-04-19T17:13:51.275Z,4.57
2018-04-19T17:16:18.763Z,4.47
2018-04-19T17:18:47.724Z,4.47
2018-04-19T17:21:15.180Z,4.60
2018-04-19T17:23:42.686Z,4.13
2018-04-19T17:26:10.220Z,4.60
2018-04-19T17:28:37.710Z,3.90
2018-04-19T17:31:05.195Z,4.90
2018-04-19T17:33:32.677Z,4.77
2018-04-19T17:36:00.167Z,4.60
2018-04-19T17:38:27.657Z,5.20
2018-04-19T17:40:55.194Z,5.20
2018-04-19T17:43:22.732Z,5.97
2018-04-19T17:45:50.226Z,5.50
2018-04-19T17:48:17.744Z,5.60
2018-04-19T17:50:45.229Z,5.70
2018-04-19T17:53:12.730Z,5.50
2018-04-19T17:55:40.244Z,5.07
2018-04-19T17:58:07.746Z,5.83
2018-04-19T18:00:35.244Z,5.40
2018-04-19T18:03:02.705Z,5.70
2018-04-19T18:05:30.259Z,6.00
2018-04-19T18:07:57.722Z,6.87
2018-04-19T18:10:25.955Z,5.77
2018-04-19T18:12:53.455Z,6.57
2018-04-19T18:15:20.947Z,7.27
2018-04-19T18:17:48.468Z,6.57
2018-04-19T18:20:15.969Z,5.70
2018-04-19T18:22:43.455Z,5.33
2018-04-19T18:25:10.956Z,5.43
2018-04-19T18:27:38.420Z,5.87
2018-04-19T18:30:05.945Z,5.90
2018-04-19T18:32:33.426Z,6.20
2018-04-19T18:35:00.882Z,6.10
2018-04-19T18:37:28.342Z,6.70
2018-04-19T18:39:55.838Z,6.40
2018-04-19T18:42:23.315Z,6.90
2018-04-19T18:44:51.818Z,7.77
2018-04-19T18:47:19.402Z,7.70
2018-04-19T18:52:20.616Z,7.30
2018-04-19T18:54:48.126Z,7.07
2018-04-19T18:57:15.635Z,7.63
2018-04-19T18:59:43.154Z,6.97
2018-04-19T19:02:10.644Z,6.80
2018-04-19T19:04:38.183Z,6.77
2018-04-19T19:07:05.812Z,6.67
2018-04-19T19:09:33.277Z,6.73
2018-04-19T19:12:00.771Z,7.60
2018-04-19T19:14:28.690Z,7.83
2018-04-19T19:16:56.192Z,7.70
2018-04-19T19:19:35.283Z,7.07
2018-04-19T19:22:02.729Z,6.40
2018-04-19T19:24:30.200Z,7.10
2018-04-19T19:26:57.977Z,5.97
2018-04-19T19:29:25.452Z,6.20
2018-04-19T19:31:52.991Z,7.67
2018-04-19T19:34:20.480Z,6.77
2018-04-19T19:36:47.943Z,6.30
2018-04-19T19:39:15.467Z,6.57
2018-04-19T19:41:43.007Z,6.20
2018-04-19T19:44:10.537Z,6.37
2018-04-19T19:46:38.022Z,6.53
2018-04-19T19:49:05.509Z,6.60
2018-04-19T19:51:33.005Z,6.80
2018-04-19T19:54:00.534Z,6.87
2018-04-19T19:56:27.998Z,6.03
2018-04-19T19:58:55.485Z,6.10
2018-04-19T20:01:22.963Z,6.23
2018-04-19T20:03:50.468Z,7.00
2018-04-19T20:06:17.951Z,7.10
2018-04-19T20:08:45.419Z,7.37
2018-04-19T20:11:12.949Z,7.00
2018-04-19T20:13:40.429Z,7.00
2018-04-19T20:16:08.025Z,6.70
2018-04-19T20:18:35.546Z,6.70
2018-04-19T20:21:03.017Z,6.00
2018-04-19T20:23:30.486Z,6.80
2018-04-19T20:25:57.973Z,6.77
2018-04-19T20:28:25.439Z,5.63
2018-04-19T20:30:52.991Z,8.00
2018-04-19T20:33:20.448Z,6.70
2018-04-19T20:35:47.921Z,6.50
2018-04-19T20:38:15.460Z,7.10
2018-04-19T20:40:42.957Z,6.33
2018-04-19T20:43:10.417Z,5.80
2018-04-19T20:45:37.891Z,5.80
2018-04-19T20:48:05.351Z,5.97
2018-04-19T20:50:32.819Z,6.60
2018-04-19T20:53:00.280Z,6.00
2018-04-19T20:55:28.104Z,6.90
2018-04-19T20:57:55.580Z,5.70
2018-04-19T21:00:23.064Z,6.20
2018-04-19T21:02:51.556Z,6.07
2018-04-19T21:05:19.093Z,6.50
2018-04-19T21:07:46.585Z,7.00
2018-04-19T21:10:14.114Z,7.00
2018-04-19T21:12:41.598Z,6.53
2018-04-19T21:15:09.162Z,6.47
2018-04-19T21:17:36.615Z,5.60
2018-04-19T21:20:04.855Z,7.20
2018-04-19T21:22:32.327Z,6.50
2018-04-19T21:24:59.798Z,6.03
2018-04-19T21:27:27.261Z,6.37
2018-04-19T21:29:54.741Z,5.97
2018-04-19T21:32:22.212Z,6.23
2018-04-19T21:34:49.678Z,6.37
2018-04-19T21:37:17.164Z,6.43
2018-04-19T21:39:44.643Z,6.97
2018-04-19T21:42:12.164Z,6.03
2018-04-19T21:44:39.618Z,6.40
2018-04-19T21:47:07.114Z,6.80
2018-04-19T21:49:34.642Z,6.73
2018-04-19T21:52:02.127Z,6.10
2018-04-19T21:54:29.664Z,6.00
2018-04-19T21:56:57.147Z,5.70
2018-04-19T21:59:24.847Z,6.37
2018-04-19T22:01:53.887Z,6.37
2018-04-19T22:04:21.423Z,6.37
2018-04-19T22:06:48.970Z,6.10
2018-04-19T22:09:16.469Z,6.13
2018-04-19T22:11:43.935Z,6.50
2018-04-19T22:14:11.481Z,6.37
2018-04-19T22:16:38.964Z,5.43
2018-04-19T22:19:06.487Z,6.60
2018-04-19T22:21:33.968Z,6.40
2018-04-19T22:24:01.436Z,6.63
2018-04-19T22:26:29.008Z,6.40
2018-04-19T22:28:56.470Z,6.50
2018-04-19T22:31:23.955Z,6.27
2018-04-19T22:33:51.405Z,6.00
2018-04-19T22:36:18.921Z,6.63
2018-04-19T22:38:46.392Z,5.80
2018-04-19T22:41:13.847Z,6.00
2018-04-19T22:43:41.410Z,6.07
2018-04-19T22:46:08.897Z,6.43
2018-04-19T22:48:36.355Z,7.00
2018-04-19T22:51:03.821Z,5.63
2018-04-19T22:53:31.313Z,6.50
2018-04-19T22:55:58.774Z,6.50
2018-04-19T22:58:26.228Z,7.33
2018-04-19T23:00:53.702Z,6.13
2018-04-19T23:03:21.216Z,6.17
2018-04-19T23:05:48.699Z,6.13
2018-04-19T23:08:16.187Z,6.30
2018-04-19T23:10:43.661Z,5.67
2018-04-19T23:13:11.116Z,5.47
2018-04-19T23:15:38.607Z,5.30
2018-04-19T23:18:06.074Z,5.70
2018-04-19T23:20:33.561Z,6.00
2018-04-19T23:23:01.021Z,7.03
2018-04-19T23:25:28.486Z,6.00
2018-04-19T23:27:56.002Z,5.90
2018-04-19T23:30:23.937Z,5.73
2018-04-19T23:32:51.460Z,5.43
2018-04-19T23:35:18.923Z,5.60
2018-04-19T23:37:46.391Z,5.53
2018-04-19T23:40:13.861Z,6.13
2018-04-19T23:42:41.318Z,5.87
2018-04-19T23:45:08.793Z,6.40
2018-04-19T23:47:36.293Z,5.53
2018-04-19T23:50:03.782Z,5.70
2018-04-19T23:52:31.238Z,6.07
2018-04-19T23:54:58.730Z,5.50
2018-04-19T23:57:26.211Z,5.63
2018-04-19T23:59:54.130Z,5.73
